• Join FlightAware (Why Join?)
  • Login
  • US Flag 
08:38PM EDT


 

Airport Tracker/Info


-or-


 

Live Flight TrackerFlight Track Log ✈ ASQ2542 ✈ 12-Apr-2013 ✈ KCRP - KDFW

Flight Track Log - Related Links

Times and Time Zones

All times are in EDT time to prevent confusion due to time zone crossing. See the ASQ2542 flight status page for this flight to view local times or setup timezone preferences in your user account.

Time Position Orientation Groundspeed Altitude Reporting Facility
EDT Latitude Longitude Course Direction KTS MPH feet Rate Location/Type
02:21PM 27.7581 -97.4928 300° West 145 167 600  Level Houston Center
02:22PM 27.7292 -97.4992 191° South 182 209 1,600 1,740 Climbing Houston Center
02:23PM 27.7569 -97.5617 297° West 246 283 3,600 2,280 Climbing Houston Center
02:24PM 27.8219 -97.6189 322° Northwest 280 322 6,300 2,280 Climbing Houston Center
02:25PM 27.8861 -97.6742 323° Northwest 282 325 8,700 2,280 Climbing Houston Center
02:26PM 27.9650 -97.7442 322° Northwest 289 333 11,400 1,920 Climbing Houston Center
02:27PM 28.0865 -97.8896 300° West  Level FlightAware Approximate
02:27PM 28.0333 -97.8050 322° Northwest 297 342 12,700  Level Houston Center
02:28PM 28.0942 -97.8861 310° West 324 373 13,700 960 Climbing Houston Center
02:29PM 28.1467 -97.9803 302° West 349 402 14,800 1,200 Climbing Houston Center
02:30PM 28.2447 -98.0283 337° Northwest 372 428 16,300 1,380 Climbing Houston Center
02:31PM 28.3392 -98.0717 338° Northwest 373 429 17,700 1,260 Climbing Houston Center
02:32PM 28.4597 -98.1281 338° Northwest 386 444 19,000 1,140 Climbing Houston Center
02:33PM 28.5653 -98.1667 342° North 397 457 20,100 1,020 Climbing Houston Center
02:34PM 28.6736 -98.1953 347° North 400 460 21,200 960 Climbing Houston Center
02:36PM 28.7903 -98.2286 346° North 401 461 22,100 720 Climbing Houston Center
02:37PM 28.9117 -98.2611 347° North 413 475 22,700 720 Climbing Houston Center
02:38PM 29.0250 -98.2919 347° North 417 480 23,700 960 Climbing Houston Center
02:39PM 29.1458 -98.3250 347° North 414 476 24,800 900 Climbing Houston Center
02:40PM 29.2569 -98.3550 347° North 411 473 25,600 600 Climbing Houston Center
02:41PM 29.3781 -98.3875 347° North 414 476 26,100 480 Climbing Houston Center
02:42PM 29.4933 -98.4181 347° North 425 489 26,600 420 Climbing Houston Center
02:43PM 29.5994 -98.4483 346° North 429 494 27,000 180 Climbing Houston Center
02:44PM 29.7417 -98.4469 360° North 488 562 27,000  Level Houston Center
02:45PM 29.8783 -98.4269 North 471 542 27,000  Level Houston Center
02:46PM 30.0150 -98.4069 North 477 549 27,000  Level Houston Center
02:47PM 30.1572 -98.3856 North 480 552 27,000  Level Houston Center
02:48PM 30.2900 -98.3661 North 484 557 27,000  Level Houston Center
02:49PM 30.4258 -98.3469 North 487 560 27,000  Level Houston Center
02:50PM 30.5611 -98.3269 North 486 559 27,000  Level Houston Center
02:51PM 30.6969 -98.3067 North 485 558 27,000  Level Houston Center
02:52PM 30.8339 -98.2861 North 487 560 27,000  Level Houston Center
02:53PM 30.9786 -98.2661 North 490 564 27,000  Level Fort Worth Center
02:54PM 31.1144 -98.2481 North 501 577 27,000 -360 Level Fort Worth Center
02:55PM 31.2481 -98.2272 North 489 563 26,300 -900 Descending Fort Worth Center
02:56PM 31.3839 -98.2067 North 489 563 25,200 -1,080 Descending Fort Worth Center
02:57PM 31.5136 -98.1639 16° North 484 557 24,200 -600 Descending Fort Worth Center
02:58PM 31.6353 -98.0819 30° Northeast 484 557 24,000 -120 Descending Fort Worth Center
02:59PM 31.7567 -97.9997 30° Northeast 494 568 24,000  Level Fort Worth Center
03:00PM 31.8614 -97.9294 30° Northeast 494 568 24,000 -1,200 Level Fort Worth Center
03:01PM 31.9892 -97.8394 31° Northeast 494 568 21,600 -2,580 Descending Fort Worth Center
03:02PM 32.0939 -97.7664 31° Northeast 484 557 19,000 -2,700 Descending Fort Worth Center
03:03PM 32.2108 -97.6883 29° Northeast 455 524 16,200 -2,400 Descending Fort Worth Center
03:04PM 32.2986 -97.6272 30° Northeast 421 484 14,200 -2,100 Descending Fort Worth Center
03:05PM 32.4053 -97.5536 30° Northeast 409 471 12,000 -1,620 Descending Fort Worth Center
03:06PM 32.4931 -97.4775 36° Northeast 395 455 11,000 -540 Descending Fort Worth Center
03:07PM 32.5683 -97.3889 45° Northeast 385 443 11,000  Level Fort Worth Center
03:08PM 32.6350 -97.3097 45° Northeast 347 399 11,000  Level Fort Worth Center
03:09PM 32.6872 -97.2456 46° Northeast 294 338 11,000  Level Fort Worth Center
03:10PM 32.7392 -97.1836 45° Northeast 260 299 11,000 -300 Level Fort Worth Center
03:11PM 32.7997 -97.1686 12° North 239 275 10,400 -1,140 Descending Fort Worth Center
03:12PM 32.8686 -97.1661 North 239 275 8,800 -1,500 Descending Fort Worth Center
03:13PM 32.9375 -97.1658 360° North 244 281 7,400 -1,620 Descending Fort Worth Center
03:14PM 33.0022 -97.1583 North 239 275 5,600 -1,620 Descending Fort Worth Center
03:15PM 33.0544 -97.1258 28° Northeast 189 217 4,200 -1,500 Descending Fort Worth Center
03:15PM 33.0500 -97.1000 102° East 212 244 3,600 -1,500 Descending Dallas / Fort Worth TRACON
03:16PM 33.0167 -97.0500 128° Southeast 202 232 2,400 -1,020 Descending Dallas / Fort Worth TRACON
03:17PM 32.9667 -97.0500 180° South 145 167 1,600 -720 Descending Dallas / Fort Worth TRACON
03:18PM 32.9333 -97.0500 180° South 149 171 1,000 -720 Descending Dallas / Fort Worth TRACON